Time;durP1;ratioP1;P1;durP2;ratioP2;P2;SDS_P1;SDS_P2;PMS_P1;PMS_P2;Temp;Humidity;BMP_temperature;BMP_pressure;BME280_temperature;BME280_humidity;BME280_pressure;Samples;Min_cycle;Max_cycle;Signal;HPM_P1;HPM_P2
2023/04/30 00:01:58;;;;;;;28.17;6.03;;;;;;;-144.73;100.00;54387.19;5053812;28;20028;-72
2023/04/30 00:04:23;;;;;;;20.77;4.55;;;;;;;-144.73;100.00;54411.81;5071590;28;20032;-71
2023/04/30 00:06:49;;;;;;;30.05;5.30;;;;;;;-144.73;100.00;54378.97;5053471;28;20146;-71
2023/04/30 00:09:14;;;;;;;29.92;5.60;;;;;;;-144.73;100.00;54415.91;5052765;28;20533;-71
2023/04/30 00:11:40;;;;;;;21.75;5.25;;;;;;;-144.73;100.00;54383.06;5066739;28;20099;-71
2023/04/30 00:14:05;;;;;;;30.92;6.53;;;;;;;-144.73;100.00;54395.38;5051427;28;20078;-70
2023/04/30 00:16:30;;;;;;;29.15;5.15;;;;;;;-144.73;100.00;54383.06;5068768;28;20074;-71
2023/04/30 00:18:56;;;;;;;24.73;5.63;;;;;;;-144.73;100.00;54428.22;5083549;28;20047;-71
2023/04/30 00:21:21;;;;;;;24.45;6.35;;;;;;;-144.73;100.00;54407.69;5053128;28;20025;-73
2023/04/30 00:23:46;;;;;;;29.95;5.80;;;;;;;-144.73;100.00;54428.22;5070743;28;20035;-71
2023/04/30 00:26:12;;;;;;;30.10;6.53;;;;;;;-144.73;100.00;54428.22;5049484;28;20033;-71
2023/04/30 00:28:37;;;;;;;27.73;6.53;;;;;;;-144.73;100.00;54395.38;5049392;28;20033;-71
2023/04/30 00:31:05;;;;;;;25.98;5.65;;;;;;;-144.73;100.00;54407.69;5052777;28;20058;-72
2023/04/30 00:33:31;;;;;;;41.42;7.30;;;;;;;-144.73;100.00;54426.16;5052724;28;20028;-72
2023/04/30 00:35:56;;;;;;;26.83;5.78;;;;;;;-144.73;100.00;54372.81;5071102;28;20103;-71
2023/04/30 00:38:21;;;;;;;29.08;6.05;;;;;;;-144.73;100.00;54448.75;5070897;28;20098;-71
2023/04/30 00:40:48;;;;;;;19.88;5.25;;;;;;;-144.73;100.00;54397.44;5049434;28;20024;-72
2023/04/30 00:43:13;;;;;;;36.95;6.63;;;;;;;-144.73;100.00;54370.75;5044496;28;20025;-72
2023/04/30 00:45:38;;;;;;;22.95;6.13;;;;;;;-144.73;100.00;54399.50;5051976;28;20031;-72
2023/04/30 00:48:03;;;;;;;23.13;5.82;;;;;;;-144.73;100.00;54378.97;5043498;28;20025;-72
2023/04/30 00:50:29;;;;;;;31.30;6.53;;;;;;;-144.73;100.00;54370.75;5049039;28;20498;-72
2023/04/30 00:52:55;;;;;;;26.80;7.07;;;;;;;-144.73;100.00;54407.69;5049837;28;20072;-72
2023/04/30 00:55:20;;;;;;;30.73;5.90;;;;;;;-144.73;100.00;54399.50;5070493;28;20028;-72
2023/04/30 00:57:46;;;;;;;32.53;7.05;;;;;;;-144.73;100.00;54383.06;5053182;28;20020;-72
2023/04/30 01:00:12;;;;;;;20.05;6.07;;;;;;;-144.73;100.00;54364.59;5049518;28;20063;-72
2023/04/30 01:02:39;;;;;;;21.27;6.80;;;;;;;-144.73;100.00;54415.91;5049535;28;20024;-72
2023/04/30 01:05:05;;;;;;;18.92;6.32;;;;;;;-144.73;100.00;54395.38;5065844;28;20040;-72
2023/04/30 01:07:31;;;;;;;21.80;6.50;;;;;;;-144.73;100.00;54358.44;5070481;28;20036;-71
2023/04/30 01:09:57;;;;;;;36.60;7.80;;;;;;;-144.73;100.00;54383.06;5051627;28;20052;-72
2023/04/30 01:12:36;;;;;;;25.42;5.88;;;;;;;-144.73;100.00;54407.69;5052576;28;20086;-72
2023/04/30 01:15:17;;;;;;;29.10;6.90;;;;;;;-144.73;100.00;54415.91;5049585;28;20035;-71
2023/04/30 01:17:56;;;;;;;21.85;5.82;;;;;;;-144.73;100.00;54387.19;5083132;28;20073;-71
2023/04/30 01:20:22;;;;;;;27.08;6.68;;;;;;;-144.73;100.00;54411.81;5051432;28;20501;-71
2023/04/30 01:22:54;;;;;;;30.52;6.68;;;;;;;-144.73;100.00;54374.84;5066963;28;20020;-71
2023/04/30 01:25:43;;;;;;;25.50;5.80;;;;;;;-144.73;100.00;54409.75;5066550;28;20039;-72
2023/04/30 01:28:13;;;;;;;22.55;5.78;;;;;;;-144.73;100.00;54383.06;5051668;28;20065;-71
2023/04/30 01:30:43;;;;;;;22.02;6.57;;;;;;;-144.73;100.00;54370.75;5066181;28;20482;-71
2023/04/30 01:33:09;;;;;;;33.78;6.28;;;;;;;-144.73;100.00;54378.97;5051659;28;20032;-71
2023/04/30 01:36:08;;;;;;;27.10;6.25;;;;;;;-144.73;100.00;54436.44;5049002;28;20009;-72
2023/04/30 01:38:55;;;;;;;28.45;6.93;;;;;;;-144.73;100.00;54436.44;5067106;28;20082;-73
2023/04/30 01:41:40;;;;;;;22.58;6.30;;;;;;;-144.73;100.00;54407.69;5047902;28;20017;-72
2023/04/30 01:44:23;;;;;;;24.58;6.05;;;;;;;-144.73;100.00;54391.28;5081700;28;20039;-72
2023/04/30 01:47:02;;;;;;;20.98;5.60;;;;;;;-144.73;100.00;54407.69;5045476;28;20539;-72
2023/04/30 01:49:37;;;;;;;25.05;8.07;;;;;;;-144.73;100.00;54407.69;5044436;28;20078;-72
2023/04/30 01:52:14;;;;;;;23.88;5.50;;;;;;;-144.73;100.00;54356.38;5052065;28;20028;-71
2023/04/30 01:54:42;;;;;;;36.33;7.97;;;;;;;-144.73;100.00;54374.84;5043634;28;20028;-73
2023/04/30 01:57:16;;;;;;;21.75;6.95;;;;;;;-144.73;100.00;54383.06;5069828;28;20021;-71
2023/04/30 01:59:42;;;;;;;37.63;6.38;;;;;;;-144.73;100.00;54407.69;5065725;28;20491;-71
2023/04/30 02:02:08;;;;;;;26.40;5.65;;;;;;;-144.73;100.00;54366.66;5055286;28;20157;-71
2023/04/30 02:04:33;;;;;;;25.25;5.95;;;;;;;-144.73;100.00;54389.22;5069154;28;20032;-71
2023/04/30 02:06:58;;;;;;;21.40;5.82;;;;;;;-144.73;100.00;54337.91;5072995;28;20022;-72
2023/04/30 02:09:24;;;;;;;26.48;7.97;;;;;;;-144.73;100.00;54395.38;5051254;28;20119;-71
2023/04/30 02:11:50;;;;;;;18.15;5.90;;;;;;;-144.73;100.00;54378.97;5048497;28;20033;-72
2023/04/30 02:14:15;;;;;;;18.27;5.72;;;;;;;-144.73;100.00;54393.34;5072657;28;20044;-71
2023/04/30 02:16:40;;;;;;;34.58;6.57;;;;;;;-144.73;100.00;54407.69;5066785;28;20020;-72
2023/04/30 02:19:06;;;;;;;27.50;6.60;;;;;;;-144.73;100.00;54428.22;5047832;28;20090;-71
2023/04/30 02:21:32;;;;;;;40.55;8.57;;;;;;;-144.73;100.00;54387.19;5051657;28;20026;-71
2023/04/30 02:23:57;;;;;;;19.75;6.50;;;;;;;-144.73;100.00;54432.31;5069920;28;20029;-72
2023/04/30 02:26:22;;;;;;;24.40;6.40;;;;;;;-144.73;100.00;54411.81;5066122;28;20033;-71
2023/04/30 02:28:48;;;;;;;35.20;6.82;;;;;;;-144.73;100.00;54374.84;5047473;28;20039;-71
2023/04/30 02:31:13;;;;;;;27.55;7.13;;;;;;;-144.73;100.00;54415.91;5048061;28;20106;-71
2023/04/30 02:33:38;;;;;;;29.23;7.10;;;;;;;-144.73;100.00;54407.69;5051693;28;20089;-71
2023/04/30 02:36:04;;;;;;;30.88;7.57;;;;;;;-144.73;100.00;54391.28;5048026;28;20024;-71
2023/04/30 02:38:29;;;;;;;20.02;6.32;;;;;;;-144.73;100.00;54436.44;5069211;28;20024;-71
2023/04/30 02:40:54;;;;;;;32.20;6.68;;;;;;;-144.73;100.00;54411.81;5069150;28;20021;-71
2023/04/30 02:43:20;;;;;;;33.17;7.78;;;;;;;-144.73;100.00;54370.75;5068556;28;20037;-71
2023/04/30 02:45:45;;;;;;;29.50;6.75;;;;;;;-144.73;100.00;54407.69;5051755;28;20027;-71
2023/04/30 02:48:10;;;;;;;26.42;6.32;;;;;;;-144.73;100.00;54399.50;5051459;28;20036;-71
2023/04/30 02:50:36;;;;;;;28.35;6.38;;;;;;;-144.73;100.00;54395.38;5050038;28;20024;-71
2023/04/30 02:53:01;;;;;;;30.40;7.45;;;;;;;-144.73;100.00;54407.69;5052536;28;20048;-71
2023/04/30 02:55:27;;;;;;;23.77;7.10;;;;;;;-144.73;100.00;54407.69;5050392;28;20020;-71
2023/04/30 02:57:52;;;;;;;29.17;7.32;;;;;;;-144.73;100.00;54393.34;5054807;28;20101;-71
2023/04/30 03:00:18;;;;;;;35.35;7.85;;;;;;;-144.73;100.00;54407.69;5054058;28;20074;-71
2023/04/30 03:02:43;;;;;;;17.52;5.85;;;;;;;-144.73;100.00;54372.81;5073129;28;20036;-73
2023/04/30 03:05:09;;;;;;;26.67;7.00;;;;;;;-144.73;100.00;54411.81;5066860;28;20041;-72
2023/04/30 03:07:34;;;;;;;26.55;7.43;;;;;;;-144.73;100.00;54420.00;5054830;28;20033;-71
2023/04/30 03:10:00;;;;;;;26.95;6.88;;;;;;;-144.73;100.00;54350.22;5071883;28;20032;-71
2023/04/30 03:12:25;;;;;;;27.25;6.60;;;;;;;-144.73;100.00;54374.84;5069458;28;20103;-71
2023/04/30 03:14:51;;;;;;;32.60;7.13;;;;;;;-144.73;100.00;54366.66;5054453;28;20044;-72
2023/04/30 03:17:16;;;;;;;33.22;7.05;;;;;;;-144.73;100.00;54407.69;5054852;28;20040;-72
2023/04/30 03:19:41;;;;;;;27.40;7.07;;;;;;;-144.73;100.00;54407.69;5070968;28;20101;-68
2023/04/30 03:22:07;;;;;;;31.48;6.55;;;;;;;-144.73;100.00;54372.81;5050627;28;20082;-68
2023/04/30 03:24:32;;;;;;;21.98;5.93;;;;;;;-144.73;100.00;54407.69;5053978;28;20079;-68
2023/04/30 03:26:58;;;;;;;23.33;6.75;;;;;;;-144.73;100.00;54383.06;5068466;28;20133;-68
2023/04/30 03:29:23;;;;;;;32.90;6.63;;;;;;;-144.73;100.00;54436.44;5071077;28;20041;-68
2023/04/30 03:31:48;;;;;;;21.30;6.32;;;;;;;-144.73;100.00;54420.00;5067039;28;20036;-68
2023/04/30 03:34:14;;;;;;;27.40;6.93;;;;;;;-144.73;100.00;54395.38;5066065;28;20048;-69
2023/04/30 03:36:39;;;;;;;22.88;6.45;;;;;;;-144.73;100.00;54391.28;5050313;28;20020;-68
2023/04/30 03:39:05;;;;;;;24.92;7.07;;;;;;;-144.73;100.00;54440.53;5068807;28;20036;-68
2023/04/30 03:41:30;;;;;;;22.85;6.43;;;;;;;-144.73;100.00;54337.91;5068816;28;20043;-68
2023/04/30 03:43:55;;;;;;;20.90;6.18;;;;;;;-144.73;100.00;54411.81;5054676;28;20174;-68
2023/04/30 03:46:21;;;;;;;28.38;7.03;;;;;;;-144.73;100.00;54415.91;5054697;28;20063;-68
2023/04/30 03:48:46;;;;;;;33.03;7.22;;;;;;;-144.73;100.00;54397.44;5071794;28;20232;-68
2023/04/30 03:51:11;;;;;;;32.35;7.45;;;;;;;-144.73;100.00;54358.44;5053963;28;20040;-69
2023/04/30 03:53:37;;;;;;;19.30;6.80;;;;;;;-144.73;100.00;54424.13;5068062;28;20033;-69
2023/04/30 03:56:03;;;;;;;34.95;7.78;;;;;;;-144.73;100.00;54381.00;5071593;28;20020;-69
2023/04/30 03:58:29;;;;;;;30.73;7.13;;;;;;;-144.73;100.00;54411.81;5049219;28;20024;-68
2023/04/30 04:00:54;;;;;;;32.65;8.23;;;;;;;-144.73;100.00;54391.28;5069975;28;20033;-68
2023/04/30 04:03:20;;;;;;;20.65;6.38;;;;;;;-144.73;100.00;54426.16;5053214;28;20036;-69
2023/04/30 04:05:46;;;;;;;28.45;7.05;;;;;;;-144.73;100.00;54413.84;5067996;28;20438;-69
2023/04/30 04:08:11;;;;;;;31.70;7.45;;;;;;;-144.73;100.00;54428.22;5053474;28;20055;-68
2023/04/30 04:10:38;;;;;;;33.53;6.75;;;;;;;-144.73;100.00;54381.00;5065849;28;20467;-68
2023/04/30 04:13:03;;;;;;;26.90;6.60;;;;;;;-144.73;100.00;54395.38;5067225;28;20035;-69
2023/04/30 04:15:28;;;;;;;25.42;7.13;;;;;;;-144.73;100.00;54370.75;5071465;28;20021;-67
2023/04/30 04:17:53;;;;;;;33.78;6.85;;;;;;;-144.73;100.00;54407.69;5043576;28;20028;-68
2023/04/30 04:20:19;;;;;;;33.45;7.97;;;;;;;-144.73;100.00;54362.53;5066624;28;20047;-68
2023/04/30 04:22:44;;;;;;;32.53;8.15;;;;;;;-144.73;100.00;54399.50;5071254;28;20063;-68
2023/04/30 04:25:09;;;;;;;24.17;7.32;;;;;;;-144.73;100.00;54417.97;5052818;28;20037;-68
2023/04/30 04:27:35;;;;;;;26.98;6.40;;;;;;;-144.73;100.00;54370.75;5053293;28;20021;-68
2023/04/30 04:30:02;;;;;;;25.60;6.85;;;;;;;-144.73;100.00;54391.28;5052476;28;20035;-68
2023/04/30 04:32:29;;;;;;;22.58;6.97;;;;;;;-144.73;100.00;54366.66;5052964;28;20170;-68
2023/04/30 04:34:55;;;;;;;29.17;6.60;;;;;;;-144.73;100.00;54383.06;5070849;28;20025;-68
2023/04/30 04:37:21;;;;;;;25.15;6.53;;;;;;;-144.73;100.00;54378.97;5052175;28;20383;-69
2023/04/30 04:39:47;;;;;;;21.02;6.50;;;;;;;-144.73;100.00;54391.28;5070108;28;20024;-68
2023/04/30 04:42:13;;;;;;;25.17;7.93;;;;;;;-144.73;100.00;54407.69;5067364;28;20024;-68
2023/04/30 04:44:40;;;;;;;26.02;7.53;;;;;;;-144.73;100.00;54407.69;5070372;28;20037;-68
2023/04/30 04:47:05;;;;;;;20.60;6.22;;;;;;;-144.73;100.00;54434.38;5049710;28;20033;-69
2023/04/30 04:49:30;;;;;;;30.48;7.10;;;;;;;-144.73;100.00;54432.31;5048436;28;20037;-68
2023/04/30 04:51:56;;;;;;;30.25;7.10;;;;;;;-144.73;100.00;54415.91;5049908;28;20025;-68
2023/04/30 04:54:21;;;;;;;25.92;7.00;;;;;;;-144.73;100.00;54417.97;5055771;28;20056;-68
2023/04/30 04:56:47;;;;;;;27.25;6.53;;;;;;;-144.73;100.00;54440.53;5067314;28;20028;-69
2023/04/30 04:59:12;;;;;;;18.95;7.00;;;;;;;-144.73;100.00;54440.53;5067210;28;20059;-68
2023/04/30 05:01:38;;;;;;;28.10;6.53;;;;;;;-144.73;100.00;54374.84;5055902;28;20103;-68
2023/04/30 05:04:03;;;;;;;27.52;6.20;;;;;;;-144.73;100.00;54399.50;5053278;28;20040;-68
2023/04/30 05:06:28;;;;;;;20.73;6.57;;;;;;;-144.73;100.00;54442.59;5073531;28;20480;-68
2023/04/30 05:08:54;;;;;;;24.02;5.72;;;;;;;-144.73;100.00;54387.19;5068173;28;20032;-68
2023/04/30 05:11:20;;;;;;;26.00;6.72;;;;;;;-144.73;100.00;54383.06;5043523;28;20036;-68
2023/04/30 05:13:46;;;;;;;22.25;6.35;;;;;;;-144.73;100.00;54399.50;5066255;28;20074;-68
2023/04/30 05:16:11;;;;;;;26.75;6.47;;;;;;;-144.73;100.00;54395.38;5048913;28;20079;-68
2023/04/30 05:18:37;;;;;;;27.33;7.13;;;;;;;-144.73;100.00;54420.00;5048458;28;20037;-68
2023/04/30 05:21:03;;;;;;;24.30;7.28;;;;;;;-144.73;100.00;54366.66;5048340;28;20576;-68
2023/04/30 05:23:28;;;;;;;19.75;6.07;;;;;;;-144.73;100.00;54417.97;5062637;28;20034;-68
2023/04/30 05:25:54;;;;;;;17.80;5.68;;;;;;;-144.73;100.00;54383.06;5067062;28;20099;-68
2023/04/30 05:28:19;;;;;;;29.25;6.40;;;;;;;-144.73;100.00;54411.81;5069417;28;20131;-68
2023/04/30 05:30:45;;;;;;;26.45;6.25;;;;;;;-144.73;100.00;54383.06;5061083;28;20016;-68
2023/04/30 05:33:10;;;;;;;28.35;6.30;;;;;;;-144.73;100.00;54407.69;5068031;28;20041;-68
2023/04/30 05:35:35;;;;;;;26.77;6.32;;;;;;;-144.73;100.00;54450.81;5056395;28;20029;-69
2023/04/30 05:38:02;;;;;;;23.83;5.80;;;;;;;-144.73;100.00;54391.28;5068452;28;20035;-68
2023/04/30 05:40:28;;;;;;;27.33;6.05;;;;;;;-144.73;100.00;54378.97;5046635;28;20039;-68
2023/04/30 05:42:53;;;;;;;32.33;6.20;;;;;;;-144.73;100.00;54358.44;5045607;28;20460;-68
2023/04/30 05:45:18;;;;;;;27.05;6.30;;;;;;;-144.73;100.00;54411.81;5069106;28;20116;-68
2023/04/30 05:47:44;;;;;;;26.23;7.32;;;;;;;-144.73;100.00;54370.75;5070148;28;20035;-68
2023/04/30 05:50:09;;;;;;;22.40;5.93;;;;;;;-144.73;100.00;54424.13;5053109;28;20048;-68
2023/04/30 05:52:35;;;;;;;23.65;5.65;;;;;;;-144.73;100.00;54370.75;5064626;28;20082;-68
2023/04/30 05:55:00;;;;;;;18.73;5.93;;;;;;;-144.73;100.00;54411.81;5052032;28;20039;-68
2023/04/30 05:57:25;;;;;;;28.10;5.78;;;;;;;-144.73;100.00;54432.31;5042664;28;20075;-68
2023/04/30 05:59:51;;;;;;;28.90;5.80;;;;;;;-144.73;100.00;54391.28;5047904;28;20086;-68
2023/04/30 06:02:16;;;;;;;25.90;5.70;;;;;;;-144.73;98.73;54383.06;5070199;28;20066;-68
2023/04/30 06:04:42;;;;;;;22.50;5.43;;;;;;;-144.73;98.48;54444.66;5055758;28;20043;-68
2023/04/30 06:07:07;;;;;;;18.75;4.95;;;;;;;-144.73;98.17;54387.19;5052503;28;20043;-68
2023/04/30 06:09:33;;;;;;;21.05;5.05;;;;;;;-144.73;94.03;54407.69;5050105;28;20471;-67
2023/04/30 06:11:58;;;;;;;27.15;5.22;;;;;;;-144.73;92.78;54368.69;5070080;28;20028;-68
2023/04/30 06:14:24;;;;;;;23.05;4.30;;;;;;;-144.73;91.92;54395.38;5051998;28;20039;-68
2023/04/30 06:16:49;;;;;;;17.65;3.95;;;;;;;-144.73;91.03;54411.81;5054414;28;20094;-68
2023/04/30 06:19:15;;;;;;;22.38;4.45;;;;;;;-144.73;90.23;54424.13;5051438;28;20035;-69
2023/04/30 06:21:42;;;;;;;23.20;5.07;;;;;;;-144.73;88.33;54407.69;5067867;28;20031;-68
2023/04/30 06:24:08;;;;;;;23.02;5.13;;;;;;;-144.73;87.46;54407.69;5075214;28;20020;-68
2023/04/30 06:26:33;;;;;;;37.92;4.85;;;;;;;-144.73;86.65;54393.34;5053023;28;20025;-68
2023/04/30 06:28:59;;;;;;;13.80;3.22;;;;;;;-144.73;82.81;54411.81;5073201;28;20033;-68
2023/04/30 06:31:25;;;;;;;21.60;3.97;;;;;;;-144.73;83.01;54370.75;5067220;28;20035;-68
2023/04/30 06:33:51;;;;;;;12.85;4.43;;;;;;;-144.73;82.73;54411.81;5085985;28;20115;-68
2023/04/30 06:36:17;;;;;;;24.52;4.75;;;;;;;-144.73;83.40;54417.97;5055808;28;20050;-68
2023/04/30 06:38:43;;;;;;;23.15;4.88;;;;;;;-144.73;81.93;54387.19;5052041;28;20033;-68
2023/04/30 06:41:08;;;;;;;24.98;4.47;;;;;;;-144.73;82.54;54383.06;5052408;28;20039;-68
2023/04/30 06:43:34;;;;;;;22.42;4.35;;;;;;;-144.73;81.36;54424.13;5057110;28;20070;-69
2023/04/30 06:45:59;;;;;;;16.27;3.72;;;;;;;-144.73;79.38;54407.69;5053021;28;20113;-68
2023/04/30 06:48:25;;;;;;;12.57;3.67;;;;;;;-144.73;80.67;54378.97;5061460;28;20229;-69
2023/04/30 06:50:50;;;;;;;19.75;4.15;;;;;;;-144.73;77.25;54424.13;5050185;28;20024;-68
2023/04/30 06:53:16;;;;;;;17.85;3.88;;;;;;;-144.73;78.98;54370.75;5082961;28;20129;-68
2023/04/30 06:55:41;;;;;;;18.23;3.83;;;;;;;-144.73;79.44;54368.69;5067686;28;20099;-68
2023/04/30 06:58:07;;;;;;;12.55;3.40;;;;;;;-144.73;77.14;54387.19;5073019;28;20029;-68
2023/04/30 07:00:33;;;;;;;24.05;4.07;;;;;;;-144.73;76.54;54354.34;5069021;28;20036;-69
2023/04/30 07:03:01;;;;;;;17.05;3.65;;;;;;;-144.73;72.93;54364.59;5055451;28;20047;-68
2023/04/30 07:05:27;;;;;;;20.83;3.67;;;;;;;-144.73;71.81;54395.38;5052519;28;20090;-69
2023/04/30 07:07:52;;;;;;;20.73;4.03;;;;;;;-144.73;72.53;54383.06;5055143;28;20024;-69
2023/04/30 07:10:18;;;;;;;11.88;3.70;;;;;;;-144.73;70.96;54424.13;5068311;28;20043;-68
2023/04/30 07:12:44;;;;;;;15.88;3.83;;;;;;;-144.73;70.33;54383.06;5058672;28;20404;-68
2023/04/30 07:15:09;;;;;;;24.42;3.42;;;;;;;-144.73;69.91;54383.06;5072373;28;20028;-73
2023/04/30 07:17:35;;;;;;;14.38;3.58;;;;;;;-144.73;69.33;54391.28;5055516;28;20054;-72
2023/04/30 07:20:03;;;;;;;19.63;4.00;;;;;;;-144.73;68.61;54395.38;5054097;28;20093;-72
2023/04/30 07:22:28;;;;;;;22.90;4.30;;;;;;;-144.73;68.60;54407.69;5051675;28;20031;-73
2023/04/30 07:24:54;;;;;;;13.13;3.33;;;;;;;-144.73;68.65;54424.13;5051133;28;20040;-72
2023/04/30 07:27:19;;;;;;;16.13;4.05;;;;;;;-144.73;67.76;54333.81;5052491;28;20033;-72
2023/04/30 07:29:45;;;;;;;17.33;4.10;;;;;;;-144.73;67.84;54383.06;5050032;28;20037;-72
2023/04/30 07:32:10;;;;;;;18.92;3.10;;;;;;;-144.73;66.08;54350.22;5054682;28;20108;-73
2023/04/30 07:34:35;;;;;;;13.27;3.70;;;;;;;-144.73;64.99;54395.38;5071984;28;20111;-73
2023/04/30 07:37:02;;;;;;;21.52;4.07;;;;;;;-144.73;64.07;54376.91;5054307;28;20169;-72
2023/04/30 07:39:28;;;;;;;16.80;4.53;;;;;;;-144.73;63.70;54346.13;5053730;28;20033;-72
2023/04/30 07:41:53;;;;;;;21.27;6.07;;;;;;;-144.73;63.53;54325.59;5068248;28;20028;-72
2023/04/30 07:44:18;;;;;;;14.23;3.90;;;;;;;-144.73;62.12;54342.03;5053303;28;20060;-73
2023/04/30 07:46:44;;;;;;;16.52;3.78;;;;;;;-144.73;60.39;54354.34;5087023;28;20025;-72
2023/04/30 07:49:09;;;;;;;18.85;3.80;;;;;;;-144.73;61.44;54391.28;5051720;28;20128;-72
2023/04/30 07:51:34;;;;;;;16.55;4.22;;;;;;;-144.73;61.49;54378.97;5048966;28;20028;-72
2023/04/30 07:54:00;;;;;;;18.95;4.30;;;;;;;-144.73;62.20;54387.19;5066670;28;20036;-72
2023/04/30 07:56:25;;;;;;;12.13;3.30;;;;;;;-144.73;61.98;54370.75;5071720;28;20028;-72
2023/04/30 07:58:51;;;;;;;14.45;3.70;;;;;;;-144.73;63.48;54366.66;5052994;28;20044;-72
2023/04/30 08:01:16;;;;;;;17.58;3.88;;;;;;;-144.73;63.40;54370.75;5070995;28;20043;-72
2023/04/30 08:03:42;;;;;;;11.40;3.78;;;;;;;-144.73;60.98;54366.66;5052916;28;20066;-72
2023/04/30 08:06:07;;;;;;;16.33;3.72;;;;;;;-144.73;59.94;54374.84;5053028;28;20028;-72
2023/04/30 08:08:33;;;;;;;12.60;4.32;;;;;;;-144.73;58.41;54325.59;5044725;28;20037;-72
2023/04/30 08:11:01;;;;;;;12.10;3.47;;;;;;;-144.73;58.46;54370.75;5066620;28;20020;-72
2023/04/30 08:13:27;;;;;;;16.60;3.85;;;;;;;-144.73;56.99;54383.06;5053860;28;20132;-72
2023/04/30 08:15:52;;;;;;;21.45;4.75;;;;;;;-144.73;56.79;54333.81;5051588;28;20036;-73
2023/04/30 08:18:18;;;;;;;15.05;4.07;;;;;;;-144.73;57.20;54342.03;5056478;28;20572;-73
2023/04/30 08:20:44;;;;;;;12.35;3.40;;;;;;;-144.73;56.67;54327.66;5069746;28;20158;-72
2023/04/30 08:23:10;;;;;;;11.77;3.25;;;;;;;-144.73;56.14;54337.91;5071344;28;20063;-73
2023/04/30 08:25:35;;;;;;;17.60;4.47;;;;;;;-144.73;59.85;54362.53;5052827;28;20033;-72
2023/04/30 08:28:01;;;;;;;20.85;3.20;;;;;;;-144.73;60.37;54329.72;5052045;28;20056;-71
2023/04/30 08:30:27;;;;;;;17.50;3.20;;;;;;;-144.73;59.75;54317.38;5071053;28;20027;-72
2023/04/30 08:32:53;;;;;;;20.73;3.92;;;;;;;-144.73;58.58;54346.13;5054662;28;20031;-71
2023/04/30 08:35:20;;;;;;;15.45;3.47;;;;;;;-144.73;56.78;54329.72;5052336;28;20101;-72
2023/04/30 08:37:45;;;;;;;20.92;3.58;;;;;;;-144.73;57.53;54366.66;5051726;28;20024;-72
2023/04/30 08:40:12;;;;;;;16.92;4.25;;;;;;;-144.73;57.95;54333.81;5051399;28;20032;-72
2023/04/30 08:42:43;;;;;;;15.85;3.42;;;;;;;-144.73;57.24;54331.75;5066419;28;20036;-72
2023/04/30 08:45:11;;;;;;;12.55;3.05;;;;;;;-144.73;56.74;54337.91;5051941;28;20432;-72
2023/04/30 08:47:37;;;;;;;12.75;2.50;;;;;;;-144.73;54.85;54339.97;5050566;28;20029;-74
2023/04/30 08:50:04;;;;;;;14.45;3.65;;;;;;;-144.73;54.21;54358.44;5049886;28;20028;-73
2023/04/30 08:52:33;;;;;;;29.25;3.65;;;;;;;-144.73;53.77;54325.59;5051162;28;20394;-72
2023/04/30 08:55:00;;;;;;;13.20;3.63;;;;;;;-144.73;55.27;54346.13;5068284;28;20059;-73
2023/04/30 08:57:25;;;;;;;22.10;3.55;;;;;;;-144.73;55.02;54333.81;5050577;28;20094;-72
2023/04/30 08:59:51;;;;;;;14.40;3.10;;;;;;;-144.73;54.17;54337.91;5067941;28;20048;-71
2023/04/30 09:02:16;;;;;;;19.70;4.50;;;;;;;-144.73;55.05;54307.13;5052564;28;20051;-73
2023/04/30 09:04:42;;;;;;;15.25;3.30;;;;;;;-144.73;53.02;54333.81;5051535;28;20032;-72
2023/04/30 09:07:08;;;;;;;15.98;4.75;;;;;;;-144.73;52.20;54358.44;5051341;28;20016;-72
2023/04/30 09:09:37;;;;;;;12.95;3.45;;;;;;;-144.73;52.68;54346.13;5050667;28;20068;-73
2023/04/30 09:12:14;;;;;;;14.82;3.72;;;;;;;-144.73;53.53;54376.91;5051629;28;20116;-72
2023/04/30 09:14:40;;;;;;;14.15;3.45;;;;;;;-144.73;52.42;54321.50;5066600;28;20556;-72
2023/04/30 09:17:09;;;;;;;19.63;4.03;;;;;;;-144.73;51.03;54337.91;5069207;28;20033;-73
2023/04/30 09:19:36;;;;;;;10.57;3.35;;;;;;;-144.73;50.71;54342.03;5066620;28;20036;-72
2023/04/30 09:22:22;;;;;;;14.13;3.95;;;;;;;-144.73;53.25;54337.91;5050857;28;20074;-72
2023/04/30 09:24:49;;;;;;;10.48;3.47;;;;;;;-144.73;55.27;54337.91;5050504;28;20063;-72
2023/04/30 09:27:20;;;;;;;21.15;3.75;;;;;;;-144.73;54.53;54370.75;5044434;28;20041;-72
2023/04/30 09:29:45;;;;;;;20.42;4.63;;;;;;;-144.73;53.53;54362.53;5041452;28;20072;-72
2023/04/30 09:32:11;;;;;;;16.17;3.50;;;;;;;-144.73;53.16;54311.22;5054025;28;20134;-72
2023/04/30 09:34:36;;;;;;;9.77;3.45;;;;;;;-144.73;51.22;54325.59;5039128;28;20055;-72
2023/04/30 09:37:02;;;;;;;17.75;4.03;;;;;;;-144.73;50.98;54370.75;5048391;28;20023;-72
2023/04/30 09:39:28;;;;;;;24.30;3.72;;;;;;;-144.73;50.25;54366.66;5056067;28;20032;-72
2023/04/30 09:42:07;;;;;;;14.13;3.28;;;;;;;-144.73;52.46;54333.81;5042909;28;20028;-72
2023/04/30 09:44:36;;;;;;;17.60;4.30;;;;;;;-144.73;51.53;54305.06;5060250;28;20033;-73
2023/04/30 09:47:02;;;;;;;21.92;3.40;;;;;;;-144.73;53.94;54354.34;5064420;28;20023;-73
2023/04/30 09:49:28;;;;;;;14.52;3.33;;;;;;;-144.73;52.28;54317.38;5060734;28;20036;-72
2023/04/30 09:51:58;;;;;;;10.15;3.85;;;;;;;-144.73;50.02;54385.13;5062842;28;20016;-72
2023/04/30 09:54:31;;;;;;;17.85;4.07;;;;;;;-144.73;51.25;54354.34;5058110;28;20051;-73
2023/04/30 09:57:00;;;;;;;21.35;3.53;;;;;;;-144.73;51.94;54325.59;5056834;28;20020;-74
2023/04/30 09:59:38;;;;;;;21.58;3.88;;;;;;;-144.73;50.07;54300.97;5046542;28;20131;-71
2023/04/30 10:02:05;;;;;;;12.18;3.15;;;;;;;-144.73;48.82;54337.91;5066503;28;20016;-71
2023/04/30 10:04:36;;;;;;;19.48;3.53;;;;;;;-144.73;50.04;54331.75;5046507;28;20108;-72
2023/04/30 10:07:12;;;;;;;21.88;3.95;;;;;;;-144.73;50.00;54350.22;5048192;28;20075;-72
2023/04/30 10:09:43;;;;;;;12.55;4.22;;;;;;;-144.73;50.47;54342.03;5050573;28;20100;-72
2023/04/30 10:12:21;;;;;;;12.32;3.35;;;;;;;-144.73;50.05;54356.38;5049756;28;20030;-71
2023/04/30 10:14:55;;;;;;;13.65;3.10;;;;;;;-144.73;49.65;54313.28;5046135;28;20032;-71
2023/04/30 10:17:25;;;;;;;14.20;3.50;;;;;;;-144.73;50.20;54333.81;5048639;28;20040;-72
2023/04/30 10:19:56;;;;;;;10.68;3.25;;;;;;;-144.73;48.00;54329.72;5053577;28;20036;-71
2023/04/30 10:22:22;;;;;;;24.20;3.72;;;;;;;-144.73;46.40;54366.66;5045339;28;20059;-72
2023/04/30 10:24:49;;;;;;;10.90;3.38;;;;;;;-144.73;45.42;54339.97;5039656;28;20061;-72
2023/04/30 10:27:14;;;;;;;13.52;3.50;;;;;;;-144.73;46.13;54339.97;5052560;28;20024;-72
2023/04/30 10:29:41;;;;;;;15.00;3.10;;;;;;;-144.73;45.46;54325.59;5047419;28;20044;-72
2023/04/30 10:32:08;;;;;;;11.82;3.05;;;;;;;-144.73;44.30;54362.53;5051074;28;20035;-73
2023/04/30 10:34:58;;;;;;;11.13;3.10;;;;;;;-144.73;43.96;54346.13;5044999;28;20074;-73
2023/04/30 10:37:30;;;;;;;15.32;3.55;;;;;;;-144.73;43.78;54309.19;5041861;28;20025;-73
2023/04/30 10:39:56;;;;;;;12.40;3.33;;;;;;;-144.73;47.28;54356.38;5042119;28;20110;-71
2023/04/30 10:42:21;;;;;;;13.82;3.30;;;;;;;-144.73;48.19;54325.59;5042368;28;20024;-73
2023/04/30 10:44:47;;;;;;;14.65;4.15;;;;;;;-144.73;46.43;54327.66;5035261;28;20064;-73
2023/04/30 10:47:15;;;;;;;12.55;3.67;;;;;;;-144.73;46.22;54350.22;5045705;28;20051;-72
2023/04/30 10:49:46;;;;;;;9.55;3.33;;;;;;;-144.73;46.23;54331.75;5056468;28;20036;-71
2023/04/30 10:52:12;;;;;;;14.95;3.35;;;;;;;-144.73;44.67;54276.34;5042504;28;20031;-72
2023/04/30 10:54:38;;;;;;;11.98;3.08;;;;;;;-144.73;44.30;54276.34;5045993;28;20036;-72
2023/04/30 10:57:10;;;;;;;9.27;2.72;;;;;;;-144.73;42.72;54350.22;5042839;28;20036;-72
2023/04/30 10:59:36;;;;;;;10.73;3.05;;;;;;;-144.73;41.30;54292.75;5053339;28;20499;-71
2023/04/30 11:02:02;;;;;;;13.27;3.42;;;;;;;-144.73;42.46;54329.72;5054222;28;20066;-72
2023/04/30 11:04:27;;;;;;;16.55;3.47;;;;;;;-144.73;42.13;54337.91;5043643;28;20089;-72